sensor_id;sensor_type;location;lat;lon;timestamp;P1;durP1;ratioP1;P2;durP2;ratioP2
7525;SDS011;3804;50.860;6.208;2022-09-29T00:02:04;11.97;;;10.57;;
7525;SDS011;3804;50.860;6.208;2022-09-29T00:04:30;14.03;;;10.50;;
7525;SDS011;3804;50.860;6.208;2022-09-29T00:06:57;15.40;;;10.80;;
7525;SDS011;3804;50.860;6.208;2022-09-29T00:09:23;11.23;;;10.03;;
7525;SDS011;3804;50.860;6.208;2022-09-29T00:11:52;15.60;;;11.43;;
7525;SDS011;3804;50.860;6.208;2022-09-29T00:14:19;13.27;;;10.23;;
7525;SDS011;3804;50.860;6.208;2022-09-29T00:16:46;13.83;;;12.20;;
7525;SDS011;3804;50.860;6.208;2022-09-29T00:19:13;15.30;;;12.43;;
7525;SDS011;3804;50.860;6.208;2022-09-29T00:21:39;13.70;;;10.57;;
7525;SDS011;3804;50.860;6.208;2022-09-29T00:24:06;14.60;;;12.23;;
7525;SDS011;3804;50.860;6.208;2022-09-29T00:26:33;13.47;;;12.07;;
7525;SDS011;3804;50.860;6.208;2022-09-29T00:28:59;15.47;;;11.20;;
7525;SDS011;3804;50.860;6.208;2022-09-29T00:31:28;14.87;;;12.47;;
7525;SDS011;3804;50.860;6.208;2022-09-29T00:33:55;17.87;;;12.90;;
7525;SDS011;3804;50.860;6.208;2022-09-29T00:36:21;14.50;;;11.90;;
7525;SDS011;3804;50.860;6.208;2022-09-29T00:38:49;15.70;;;12.43;;
7525;SDS011;3804;50.860;6.208;2022-09-29T00:41:17;14.80;;;12.33;;
7525;SDS011;3804;50.860;6.208;2022-09-29T00:46:11;19.03;;;12.60;;
7525;SDS011;3804;50.860;6.208;2022-09-29T00:48:39;17.43;;;13.60;;
7525;SDS011;3804;50.860;6.208;2022-09-29T00:51:06;16.53;;;13.13;;
7525;SDS011;3804;50.860;6.208;2022-09-29T00:53:33;17.03;;;12.97;;
7525;SDS011;3804;50.860;6.208;2022-09-29T00:56:04;15.33;;;13.23;;
7525;SDS011;3804;50.860;6.208;2022-09-29T01:00:59;18.53;;;13.50;;
7525;SDS011;3804;50.860;6.208;2022-09-29T01:03:30;17.73;;;13.57;;
7525;SDS011;3804;50.860;6.208;2022-09-29T01:05:58;15.53;;;12.93;;
7525;SDS011;3804;50.860;6.208;2022-09-29T01:08:34;18.40;;;13.57;;
7525;SDS011;3804;50.860;6.208;2022-09-29T01:11:02;19.13;;;13.33;;
7525;SDS011;3804;50.860;6.208;2022-09-29T01:13:30;16.07;;;13.37;;
7525;SDS011;3804;50.860;6.208;2022-09-29T01:15:57;17.83;;;13.73;;
7525;SDS011;3804;50.860;6.208;2022-09-29T01:18:24;16.03;;;13.13;;
7525;SDS011;3804;50.860;6.208;2022-09-29T01:20:52;18.10;;;14.10;;
7525;SDS011;3804;50.860;6.208;2022-09-29T01:33:42;18.20;;;13.50;;
7525;SDS011;3804;50.860;6.208;2022-09-29T01:38:50;19.00;;;14.07;;
7525;SDS011;3804;50.860;6.208;2022-09-29T01:41:31;21.03;;;13.93;;
7525;SDS011;3804;50.860;6.208;2022-09-29T01:46:39;18.80;;;14.73;;
7525;SDS011;3804;50.860;6.208;2022-09-29T01:49:07;16.33;;;13.73;;
7525;SDS011;3804;50.860;6.208;2022-09-29T01:51:39;15.83;;;14.13;;
7525;SDS011;3804;50.860;6.208;2022-09-29T01:54:11;17.33;;;13.87;;
7525;SDS011;3804;50.860;6.208;2022-09-29T01:56:40;18.27;;;13.37;;
7525;SDS011;3804;50.860;6.208;2022-09-29T01:59:16;18.07;;;13.53;;
7525;SDS011;3804;50.860;6.208;2022-09-29T02:01:43;17.50;;;13.87;;
7525;SDS011;3804;50.860;6.208;2022-09-29T02:04:17;17.47;;;13.90;;
7525;SDS011;3804;50.860;6.208;2022-09-29T02:06:47;18.93;;;14.33;;
7525;SDS011;3804;50.860;6.208;2022-09-29T02:09:18;17.93;;;14.10;;
7525;SDS011;3804;50.860;6.208;2022-09-29T02:11:47;20.30;;;13.57;;
7525;SDS011;3804;50.860;6.208;2022-09-29T02:14:18;17.03;;;14.20;;
7525;SDS011;3804;50.860;6.208;2022-09-29T02:16:51;16.80;;;14.00;;
7525;SDS011;3804;50.860;6.208;2022-09-29T02:19:24;17.23;;;14.50;;
7525;SDS011;3804;50.860;6.208;2022-09-29T02:21:52;18.67;;;13.57;;
7525;SDS011;3804;50.860;6.208;2022-09-29T02:24:20;22.97;;;14.27;;
7525;SDS011;3804;50.860;6.208;2022-09-29T02:26:47;18.87;;;14.20;;
7525;SDS011;3804;50.860;6.208;2022-09-29T02:29:14;24.33;;;14.33;;
7525;SDS011;3804;50.860;6.208;2022-09-29T02:31:42;19.07;;;14.87;;
7525;SDS011;3804;50.860;6.208;2022-09-29T02:34:10;21.43;;;16.03;;
7525;SDS011;3804;50.860;6.208;2022-09-29T02:39:14;23.13;;;15.43;;
7525;SDS011;3804;50.860;6.208;2022-09-29T02:41:54;18.37;;;14.00;;
7525;SDS011;3804;50.860;6.208;2022-09-29T02:47:10;19.53;;;15.10;;
7525;SDS011;3804;50.860;6.208;2022-09-29T02:49:45;21.33;;;14.90;;
7525;SDS011;3804;50.860;6.208;2022-09-29T02:52:21;22.80;;;14.83;;
7525;SDS011;3804;50.860;6.208;2022-09-29T03:00:04;25.77;;;16.00;;
7525;SDS011;3804;50.860;6.208;2022-09-29T03:02:34;19.60;;;15.20;;
7525;SDS011;3804;50.860;6.208;2022-09-29T03:05:02;25.20;;;16.07;;
7525;SDS011;3804;50.860;6.208;2022-09-29T03:07:28;20.43;;;15.90;;
7525;SDS011;3804;50.860;6.208;2022-09-29T03:09:55;22.33;;;15.57;;
7525;SDS011;3804;50.860;6.208;2022-09-29T03:12:22;20.50;;;14.47;;
7525;SDS011;3804;50.860;6.208;2022-09-29T03:14:48;21.40;;;15.30;;
7525;SDS011;3804;50.860;6.208;2022-09-29T03:17:15;20.53;;;15.30;;
7525;SDS011;3804;50.860;6.208;2022-09-29T03:19:41;19.00;;;15.57;;
7525;SDS011;3804;50.860;6.208;2022-09-29T03:22:08;21.30;;;15.37;;
7525;SDS011;3804;50.860;6.208;2022-09-29T03:24:35;24.47;;;15.60;;
7525;SDS011;3804;50.860;6.208;2022-09-29T03:27:01;21.53;;;15.60;;
7525;SDS011;3804;50.860;6.208;2022-09-29T03:29:28;23.23;;;16.20;;
7525;SDS011;3804;50.860;6.208;2022-09-29T03:31:54;23.87;;;17.33;;
7525;SDS011;3804;50.860;6.208;2022-09-29T03:34:21;23.30;;;16.37;;
7525;SDS011;3804;50.860;6.208;2022-09-29T03:36:48;23.90;;;16.37;;
7525;SDS011;3804;50.860;6.208;2022-09-29T03:39:14;24.17;;;16.53;;
7525;SDS011;3804;50.860;6.208;2022-09-29T03:41:41;23.87;;;17.30;;
7525;SDS011;3804;50.860;6.208;2022-09-29T03:44:07;24.27;;;17.40;;
7525;SDS011;3804;50.860;6.208;2022-09-29T03:46:34;24.47;;;17.50;;
7525;SDS011;3804;50.860;6.208;2022-09-29T03:49:01;23.30;;;17.27;;
7525;SDS011;3804;50.860;6.208;2022-09-29T03:51:27;25.83;;;17.93;;
7525;SDS011;3804;50.860;6.208;2022-09-29T03:53:54;21.60;;;16.13;;
7525;SDS011;3804;50.860;6.208;2022-09-29T03:56:20;23.07;;;17.30;;
7525;SDS011;3804;50.860;6.208;2022-09-29T03:58:47;22.80;;;16.27;;
7525;SDS011;3804;50.860;6.208;2022-09-29T04:01:15;25.20;;;17.03;;
7525;SDS011;3804;50.860;6.208;2022-09-29T04:03:42;23.47;;;16.40;;
7525;SDS011;3804;50.860;6.208;2022-09-29T04:06:08;23.43;;;16.50;;
7525;SDS011;3804;50.860;6.208;2022-09-29T04:08:35;23.53;;;17.27;;
7525;SDS011;3804;50.860;6.208;2022-09-29T04:11:02;26.93;;;16.73;;
7525;SDS011;3804;50.860;6.208;2022-09-29T04:13:29;23.87;;;15.70;;
7525;SDS011;3804;50.860;6.208;2022-09-29T04:16:00;25.90;;;16.70;;
7525;SDS011;3804;50.860;6.208;2022-09-29T04:18:27;24.00;;;16.07;;
7525;SDS011;3804;50.860;6.208;2022-09-29T04:20:54;25.03;;;16.97;;
7525;SDS011;3804;50.860;6.208;2022-09-29T04:23:26;28.50;;;16.97;;
7525;SDS011;3804;50.860;6.208;2022-09-29T04:25:55;25.27;;;16.27;;
7525;SDS011;3804;50.860;6.208;2022-09-29T04:28:22;22.63;;;16.13;;
7525;SDS011;3804;50.860;6.208;2022-09-29T04:30:49;22.53;;;16.47;;
7525;SDS011;3804;50.860;6.208;2022-09-29T04:33:15;24.90;;;16.13;;
7525;SDS011;3804;50.860;6.208;2022-09-29T04:35:42;23.17;;;16.30;;
7525;SDS011;3804;50.860;6.208;2022-09-29T04:38:09;22.40;;;15.87;;
7525;SDS011;3804;50.860;6.208;2022-09-29T04:40:35;19.93;;;15.37;;
7525;SDS011;3804;50.860;6.208;2022-09-29T04:43:02;21.13;;;15.93;;
7525;SDS011;3804;50.860;6.208;2022-09-29T04:45:30;21.80;;;16.23;;
7525;SDS011;3804;50.860;6.208;2022-09-29T04:47:57;22.30;;;16.13;;
7525;SDS011;3804;50.860;6.208;2022-09-29T04:50:23;20.73;;;15.37;;
7525;SDS011;3804;50.860;6.208;2022-09-29T04:52:50;24.10;;;16.57;;
7525;SDS011;3804;50.860;6.208;2022-09-29T04:55:17;24.73;;;16.60;;
7525;SDS011;3804;50.860;6.208;2022-09-29T04:57:43;23.53;;;16.30;;
7525;SDS011;3804;50.860;6.208;2022-09-29T05:00:10;21.53;;;15.30;;
7525;SDS011;3804;50.860;6.208;2022-09-29T05:02:37;21.33;;;15.67;;
7525;SDS011;3804;50.860;6.208;2022-09-29T05:05:04;21.53;;;15.13;;
7525;SDS011;3804;50.860;6.208;2022-09-29T05:07:35;21.40;;;15.13;;
7525;SDS011;3804;50.860;6.208;2022-09-29T05:10:02;21.80;;;14.83;;
7525;SDS011;3804;50.860;6.208;2022-09-29T05:12:29;23.90;;;16.43;;
7525;SDS011;3804;50.860;6.208;2022-09-29T05:14:56;24.93;;;15.20;;
7525;SDS011;3804;50.860;6.208;2022-09-29T05:17:23;21.57;;;15.97;;
7525;SDS011;3804;50.860;6.208;2022-09-29T05:19:49;21.63;;;15.47;;
7525;SDS011;3804;50.860;6.208;2022-09-29T05:22:16;24.43;;;16.37;;
7525;SDS011;3804;50.860;6.208;2022-09-29T05:24:50;22.17;;;15.50;;
7525;SDS011;3804;50.860;6.208;2022-09-29T05:27:16;20.50;;;15.63;;
7525;SDS011;3804;50.860;6.208;2022-09-29T05:29:43;20.17;;;14.33;;
7525;SDS011;3804;50.860;6.208;2022-09-29T05:32:10;20.63;;;14.83;;
7525;SDS011;3804;50.860;6.208;2022-09-29T05:34:37;20.17;;;14.90;;
7525;SDS011;3804;50.860;6.208;2022-09-29T05:37:03;22.73;;;15.23;;
7525;SDS011;3804;50.860;6.208;2022-09-29T05:39:30;20.73;;;14.10;;
7525;SDS011;3804;50.860;6.208;2022-09-29T05:42:00;21.87;;;14.20;;
7525;SDS011;3804;50.860;6.208;2022-09-29T05:44:27;20.00;;;14.67;;
7525;SDS011;3804;50.860;6.208;2022-09-29T05:46:54;22.60;;;13.37;;
7525;SDS011;3804;50.860;6.208;2022-09-29T05:49:21;18.80;;;14.20;;
7525;SDS011;3804;50.860;6.208;2022-09-29T05:51:48;19.67;;;14.40;;
7525;SDS011;3804;50.860;6.208;2022-09-29T05:54:15;20.50;;;14.77;;
7525;SDS011;3804;50.860;6.208;2022-09-29T05:56:42;21.13;;;14.80;;
7525;SDS011;3804;50.860;6.208;2022-09-29T05:59:11;21.07;;;14.43;;
7525;SDS011;3804;50.860;6.208;2022-09-29T06:01:38;21.03;;;14.57;;
7525;SDS011;3804;50.860;6.208;2022-09-29T06:04:05;21.03;;;14.33;;
7525;SDS011;3804;50.860;6.208;2022-09-29T06:06:32;17.00;;;13.47;;
7525;SDS011;3804;50.860;6.208;2022-09-29T06:08:58;19.93;;;14.57;;
7525;SDS011;3804;50.860;6.208;2022-09-29T06:11:26;21.93;;;13.70;;
7525;SDS011;3804;50.860;6.208;2022-09-29T06:13:54;18.80;;;12.93;;
7525;SDS011;3804;50.860;6.208;2022-09-29T06:16:22;18.83;;;13.23;;
7525;SDS011;3804;50.860;6.208;2022-09-29T06:18:49;19.27;;;12.60;;
7525;SDS011;3804;50.860;6.208;2022-09-29T06:21:17;20.27;;;13.97;;
7525;SDS011;3804;50.860;6.208;2022-09-29T06:23:44;18.60;;;13.27;;
7525;SDS011;3804;50.860;6.208;2022-09-29T06:26:11;17.60;;;12.57;;
7525;SDS011;3804;50.860;6.208;2022-09-29T06:28:38;16.07;;;12.63;;
7525;SDS011;3804;50.860;6.208;2022-09-29T06:31:06;14.87;;;11.70;;
7525;SDS011;3804;50.860;6.208;2022-09-29T06:33:33;15.87;;;12.07;;
7525;SDS011;3804;50.860;6.208;2022-09-29T06:36:00;19.43;;;12.00;;
7525;SDS011;3804;50.860;6.208;2022-09-29T06:38:47;17.87;;;12.50;;
7525;SDS011;3804;50.860;6.208;2022-09-29T06:41:13;17.50;;;12.33;;
7525;SDS011;3804;50.860;6.208;2022-09-29T06:43:40;17.37;;;12.10;;
7525;SDS011;3804;50.860;6.208;2022-09-29T06:46:06;15.60;;;12.03;;
7525;SDS011;3804;50.860;6.208;2022-09-29T06:48:33;17.57;;;12.33;;
7525;SDS011;3804;50.860;6.208;2022-09-29T06:51:00;17.87;;;12.60;;
7525;SDS011;3804;50.860;6.208;2022-09-29T06:53:35;20.40;;;12.77;;
7525;SDS011;3804;50.860;6.208;2022-09-29T06:56:05;18.60;;;12.37;;
7525;SDS011;3804;50.860;6.208;2022-09-29T06:58:32;16.87;;;12.33;;
7525;SDS011;3804;50.860;6.208;2022-09-29T07:00:59;19.07;;;12.50;;
7525;SDS011;3804;50.860;6.208;2022-09-29T07:03:27;19.87;;;12.23;;
7525;SDS011;3804;50.860;6.208;2022-09-29T07:05:54;19.20;;;12.37;;
7525;SDS011;3804;50.860;6.208;2022-09-29T07:08:40;18.33;;;11.90;;
7525;SDS011;3804;50.860;6.208;2022-09-29T07:11:07;15.83;;;11.23;;
7525;SDS011;3804;50.860;6.208;2022-09-29T07:13:34;17.47;;;12.57;;
7525;SDS011;3804;50.860;6.208;2022-09-29T07:16:08;19.37;;;12.13;;
7525;SDS011;3804;50.860;6.208;2022-09-29T07:18:36;17.60;;;11.67;;
7525;SDS011;3804;50.860;6.208;2022-09-29T07:21:03;19.23;;;12.70;;
7525;SDS011;3804;50.860;6.208;2022-09-29T07:23:30;16.50;;;12.73;;
7525;SDS011;3804;50.860;6.208;2022-09-29T07:25:57;19.10;;;12.90;;
7525;SDS011;3804;50.860;6.208;2022-09-29T07:28:24;13.83;;;10.50;;
7525;SDS011;3804;50.860;6.208;2022-09-29T07:30:57;11.37;;;9.17;;
7525;SDS011;3804;50.860;6.208;2022-09-29T07:33:36;8.37;;;6.07;;
7525;SDS011;3804;50.860;6.208;2022-09-29T07:36:04;10.47;;;6.00;;
7525;SDS011;3804;50.860;6.208;2022-09-29T07:38:31;7.63;;;4.63;;
7525;SDS011;3804;50.860;6.208;2022-09-29T07:40:59;8.90;;;5.00;;
7525;SDS011;3804;50.860;6.208;2022-09-29T07:43:26;6.83;;;4.83;;
7525;SDS011;3804;50.860;6.208;2022-09-29T07:45:53;8.83;;;5.57;;
7525;SDS011;3804;50.860;6.208;2022-09-29T07:48:20;9.60;;;6.33;;
7525;SDS011;3804;50.860;6.208;2022-09-29T07:50:46;8.30;;;5.13;;
7525;SDS011;3804;50.860;6.208;2022-09-29T07:53:13;7.27;;;5.67;;
7525;SDS011;3804;50.860;6.208;2022-09-29T07:55:40;6.23;;;5.20;;
7525;SDS011;3804;50.860;6.208;2022-09-29T07:58:07;9.83;;;5.60;;
7525;SDS011;3804;50.860;6.208;2022-09-29T08:00:34;7.03;;;5.00;;
7525;SDS011;3804;50.860;6.208;2022-09-29T08:03:01;6.90;;;5.40;;
7525;SDS011;3804;50.860;6.208;2022-09-29T08:05:29;6.50;;;5.10;;
7525;SDS011;3804;50.860;6.208;2022-09-29T08:07:59;9.00;;;5.23;;
7525;SDS011;3804;50.860;6.208;2022-09-29T08:10:27;6.93;;;5.10;;
7525;SDS011;3804;50.860;6.208;2022-09-29T08:12:54;7.07;;;5.33;;
7525;SDS011;3804;50.860;6.208;2022-09-29T08:15:22;7.67;;;5.20;;
7525;SDS011;3804;50.860;6.208;2022-09-29T08:17:51;5.63;;;4.70;;
7525;SDS011;3804;50.860;6.208;2022-09-29T08:20:18;8.40;;;5.20;;
7525;SDS011;3804;50.860;6.208;2022-09-29T08:22:44;6.83;;;5.10;;
7525;SDS011;3804;50.860;6.208;2022-09-29T08:25:12;6.87;;;5.30;;
7525;SDS011;3804;50.860;6.208;2022-09-29T08:27:38;8.40;;;4.83;;
7525;SDS011;3804;50.860;6.208;2022-09-29T08:30:19;6.43;;;4.60;;
7525;SDS011;3804;50.860;6.208;2022-09-29T08:32:50;7.17;;;4.40;;
7525;SDS011;3804;50.860;6.208;2022-09-29T08:35:16;4.40;;;4.00;;
7525;SDS011;3804;50.860;6.208;2022-09-29T08:37:43;5.97;;;3.90;;
7525;SDS011;3804;50.860;6.208;2022-09-29T08:40:10;4.93;;;3.57;;
7525;SDS011;3804;50.860;6.208;2022-09-29T08:45:28;5.20;;;3.50;;
7525;SDS011;3804;50.860;6.208;2022-09-29T08:48:09;4.60;;;3.43;;
7525;SDS011;3804;50.860;6.208;2022-09-29T08:50:50;4.70;;;3.00;;
7525;SDS011;3804;50.860;6.208;2022-09-29T08:53:18;4.60;;;3.90;;
7525;SDS011;3804;50.860;6.208;2022-09-29T08:56:01;5.77;;;3.73;;
7525;SDS011;3804;50.860;6.208;2022-09-29T08:58:28;5.73;;;4.00;;
7525;SDS011;3804;50.860;6.208;2022-09-29T09:01:05;6.47;;;4.00;;
7525;SDS011;3804;50.860;6.208;2022-09-29T09:03:39;4.70;;;3.70;;
7525;SDS011;3804;50.860;6.208;2022-09-29T09:14:01;5.87;;;4.00;;
7525;SDS011;3804;50.860;6.208;2022-09-29T09:16:40;7.67;;;4.00;;
7525;SDS011;3804;50.860;6.208;2022-09-29T09:21:57;4.63;;;2.90;;
7525;SDS011;3804;50.860;6.208;2022-09-29T09:27:13;5.53;;;3.43;;
7525;SDS011;3804;50.860;6.208;2022-09-29T09:29:41;4.60;;;3.30;;
7525;SDS011;3804;50.860;6.208;2022-09-29T09:32:09;3.90;;;3.23;;
7525;SDS011;3804;50.860;6.208;2022-09-29T09:34:42;5.47;;;3.57;;
7525;SDS011;3804;50.860;6.208;2022-09-29T09:37:13;6.83;;;3.33;;
7525;SDS011;3804;50.860;6.208;2022-09-29T09:39:47;4.70;;;3.30;;
7525;SDS011;3804;50.860;6.208;2022-09-29T09:42:16;4.53;;;3.37;;
7525;SDS011;3804;50.860;6.208;2022-09-29T09:44:47;4.93;;;2.90;;
7525;SDS011;3804;50.860;6.208;2022-09-29T09:49:44;4.57;;;3.00;;
7525;SDS011;3804;50.860;6.208;2022-09-29T09:52:20;5.20;;;2.63;;
7525;SDS011;3804;50.860;6.208;2022-09-29T09:54:52;4.17;;;2.67;;
7525;SDS011;3804;50.860;6.208;2022-09-29T09:57:28;3.97;;;2.17;;
7525;SDS011;3804;50.860;6.208;2022-09-29T10:00:03;4.80;;;2.83;;
7525;SDS011;3804;50.860;6.208;2022-09-29T10:02:41;4.37;;;2.80;;
7525;SDS011;3804;50.860;6.208;2022-09-29T10:05:10;4.53;;;2.70;;
7525;SDS011;3804;50.860;6.208;2022-09-29T10:07:37;3.87;;;2.90;;
7525;SDS011;3804;50.860;6.208;2022-09-29T10:10:04;2.40;;;1.80;;
7525;SDS011;3804;50.860;6.208;2022-09-29T10:12:38;3.67;;;2.30;;
7525;SDS011;3804;50.860;6.208;2022-09-29T10:15:27;4.87;;;2.23;;
7525;SDS011;3804;50.860;6.208;2022-09-29T10:17:56;3.27;;;1.70;;
7525;SDS011;3804;50.860;6.208;2022-09-29T10:20:44;2.03;;;1.50;;
7525;SDS011;3804;50.860;6.208;2022-09-29T10:23:17;4.33;;;1.60;;
7525;SDS011;3804;50.860;6.208;2022-09-29T10:28:20;2.37;;;1.67;;
7525;SDS011;3804;50.860;6.208;2022-09-29T10:30:48;2.43;;;1.47;;
7525;SDS011;3804;50.860;6.208;2022-09-29T10:33:16;2.77;;;1.40;;
7525;SDS011;3804;50.860;6.208;2022-09-29T10:35:44;2.77;;;1.20;;
7525;SDS011;3804;50.860;6.208;2022-09-29T10:38:16;1.03;;;0.93;;
7525;SDS011;3804;50.860;6.208;2022-09-29T10:40:56;2.53;;;1.20;;
7525;SDS011;3804;50.860;6.208;2022-09-29T10:43:25;2.23;;;1.20;;
7525;SDS011;3804;50.860;6.208;2022-09-29T10:45:53;2.43;;;1.07;;
7525;SDS011;3804;50.860;6.208;2022-09-29T10:48:24;2.57;;;1.00;;
7525;SDS011;3804;50.860;6.208;2022-09-29T10:50:53;1.90;;;1.27;;
7525;SDS011;3804;50.860;6.208;2022-09-29T10:53:22;1.57;;;1.07;;
7525;SDS011;3804;50.860;6.208;2022-09-29T10:55:51;1.97;;;0.90;;
7525;SDS011;3804;50.860;6.208;2022-09-29T10:58:34;4.23;;;1.40;;
7525;SDS011;3804;50.860;6.208;2022-09-29T11:01:22;3.00;;;1.50;;
7525;SDS011;3804;50.860;6.208;2022-09-29T11:06:27;1.80;;;1.17;;
7525;SDS011;3804;50.860;6.208;2022-09-29T11:11:24;3.40;;;1.30;;
7525;SDS011;3804;50.860;6.208;2022-09-29T11:13:51;1.73;;;1.10;;
7525;SDS011;3804;50.860;6.208;2022-09-29T11:16:22;3.03;;;1.37;;
7525;SDS011;3804;50.860;6.208;2022-09-29T11:18:51;3.30;;;1.20;;
7525;SDS011;3804;50.860;6.208;2022-09-29T11:23:51;2.50;;;1.30;;
7525;SDS011;3804;50.860;6.208;2022-09-29T11:36:44;3.90;;;1.70;;
7525;SDS011;3804;50.860;6.208;2022-09-29T11:39:24;2.83;;;1.80;;
7525;SDS011;3804;50.860;6.208;2022-09-29T11:52:54;2.97;;;1.67;;
7525;SDS011;3804;50.860;6.208;2022-09-29T11:58:13;2.73;;;1.60;;
7525;SDS011;3804;50.860;6.208;2022-09-29T12:03:26;1.93;;;1.30;;
7525;SDS011;3804;50.860;6.208;2022-09-29T12:14:48;2.80;;;1.70;;
7525;SDS011;3804;50.860;6.208;2022-09-29T12:17:17;1.80;;;1.70;;
7525;SDS011;3804;50.860;6.208;2022-09-29T12:19:46;3.77;;;2.00;;
7525;SDS011;3804;50.860;6.208;2022-09-29T12:22:17;2.47;;;1.97;;
7525;SDS011;3804;50.860;6.208;2022-09-29T12:24:46;3.87;;;1.60;;
7525;SDS011;3804;50.860;6.208;2022-09-29T12:27:18;3.27;;;1.63;;
7525;SDS011;3804;50.860;6.208;2022-09-29T12:29:47;3.13;;;1.60;;
7525;SDS011;3804;50.860;6.208;2022-09-29T12:32:20;2.70;;;1.70;;
7525;SDS011;3804;50.860;6.208;2022-09-29T12:34:56;2.97;;;1.50;;
7525;SDS011;3804;50.860;6.208;2022-09-29T12:45:32;2.80;;;2.27;;
7525;SDS011;3804;50.860;6.208;2022-09-29T12:50:39;4.20;;;2.50;;
7525;SDS011;3804;50.860;6.208;2022-09-29T12:58:05;2.77;;;2.20;;
7525;SDS011;3804;50.860;6.208;2022-09-29T13:00:34;2.87;;;2.30;;
7525;SDS011;3804;50.860;6.208;2022-09-29T13:16:12;3.60;;;2.50;;
7525;SDS011;3804;50.860;6.208;2022-09-29T13:21:28;3.33;;;2.87;;
7525;SDS011;3804;50.860;6.208;2022-09-29T13:29:17;4.43;;;2.80;;
7525;SDS011;3804;50.860;6.208;2022-09-29T13:31:45;3.23;;;2.50;;
7525;SDS011;3804;50.860;6.208;2022-09-29T13:34:18;3.53;;;2.73;;
7525;SDS011;3804;50.860;6.208;2022-09-29T13:36:45;4.37;;;2.47;;
7525;SDS011;3804;50.860;6.208;2022-09-29T13:39:19;3.47;;;2.50;;
7525;SDS011;3804;50.860;6.208;2022-09-29T13:41:46;3.90;;;2.53;;
7525;SDS011;3804;50.860;6.208;2022-09-29T13:46:42;4.80;;;2.40;;
7525;SDS011;3804;50.860;6.208;2022-09-29T13:56:51;3.50;;;2.20;;
7525;SDS011;3804;50.860;6.208;2022-09-29T13:59:24;4.50;;;2.30;;
7525;SDS011;3804;50.860;6.208;2022-09-29T14:01:51;4.97;;;2.27;;
7525;SDS011;3804;50.860;6.208;2022-09-29T14:04:34;4.07;;;2.17;;
7525;SDS011;3804;50.860;6.208;2022-09-29T14:07:04;4.67;;;2.50;;
7525;SDS011;3804;50.860;6.208;2022-09-29T14:09:35;3.43;;;2.40;;
7525;SDS011;3804;50.860;6.208;2022-09-29T14:12:08;3.33;;;2.23;;
7525;SDS011;3804;50.860;6.208;2022-09-29T14:14:40;3.40;;;2.43;;
7525;SDS011;3804;50.860;6.208;2022-09-29T14:17:09;4.30;;;2.40;;
7525;SDS011;3804;50.860;6.208;2022-09-29T14:27:34;2.60;;;1.97;;
7525;SDS011;3804;50.860;6.208;2022-09-29T14:32:39;1.87;;;1.40;;
7525;SDS011;3804;50.860;6.208;2022-09-29T14:35:12;4.27;;;1.83;;
7525;SDS011;3804;50.860;6.208;2022-09-29T14:37:40;3.93;;;2.00;;
7525;SDS011;3804;50.860;6.208;2022-09-29T14:40:07;2.43;;;1.40;;
7525;SDS011;3804;50.860;6.208;2022-09-29T14:43:02;2.33;;;1.70;;
7525;SDS011;3804;50.860;6.208;2022-09-29T14:45:31;3.90;;;1.93;;
7525;SDS011;3804;50.860;6.208;2022-09-29T14:48:22;3.93;;;1.53;;
7525;SDS011;3804;50.860;6.208;2022-09-29T14:59:21;3.03;;;1.60;;
7525;SDS011;3804;50.860;6.208;2022-09-29T15:04:38;2.27;;;1.73;;
7525;SDS011;3804;50.860;6.208;2022-09-29T15:07:08;2.63;;;1.53;;
7525;SDS011;3804;50.860;6.208;2022-09-29T15:09:37;1.37;;;1.27;;
7525;SDS011;3804;50.860;6.208;2022-09-29T15:12:14;1.60;;;1.20;;
7525;SDS011;3804;50.860;6.208;2022-09-29T15:14:41;1.83;;;1.10;;
7525;SDS011;3804;50.860;6.208;2022-09-29T15:27:37;1.87;;;1.30;;
7525;SDS011;3804;50.860;6.208;2022-09-29T15:30:04;1.37;;;1.30;;
7525;SDS011;3804;50.860;6.208;2022-09-29T15:32:31;2.53;;;1.40;;
7525;SDS011;3804;50.860;6.208;2022-09-29T15:35:01;4.10;;;1.67;;
7525;SDS011;3804;50.860;6.208;2022-09-29T15:40:14;2.33;;;1.60;;
7525;SDS011;3804;50.860;6.208;2022-09-29T15:42:41;2.23;;;1.40;;
7525;SDS011;3804;50.860;6.208;2022-09-29T15:45:10;1.83;;;1.30;;
7525;SDS011;3804;50.860;6.208;2022-09-29T15:47:40;1.90;;;1.27;;
7525;SDS011;3804;50.860;6.208;2022-09-29T15:50:21;3.63;;;1.47;;
7525;SDS011;3804;50.860;6.208;2022-09-29T15:52:48;2.60;;;1.77;;
7525;SDS011;3804;50.860;6.208;2022-09-29T15:55:17;3.60;;;1.57;;
7525;SDS011;3804;50.860;6.208;2022-09-29T15:57:45;2.97;;;1.60;;
7525;SDS011;3804;50.860;6.208;2022-09-29T16:05:18;2.53;;;1.70;;
7525;SDS011;3804;50.860;6.208;2022-09-29T16:07:47;3.20;;;1.70;;
7525;SDS011;3804;50.860;6.208;2022-09-29T16:10:15;2.77;;;2.20;;
7525;SDS011;3804;50.860;6.208;2022-09-29T16:12:46;3.87;;;1.90;;
7525;SDS011;3804;50.860;6.208;2022-09-29T16:15:36;3.40;;;1.93;;
7525;SDS011;3804;50.860;6.208;2022-09-29T16:18:04;1.70;;;1.50;;
7525;SDS011;3804;50.860;6.208;2022-09-29T16:20:32;2.43;;;1.73;;
7525;SDS011;3804;50.860;6.208;2022-09-29T16:23:06;2.53;;;1.87;;
7525;SDS011;3804;50.860;6.208;2022-09-29T16:25:33;2.27;;;1.90;;
7525;SDS011;3804;50.860;6.208;2022-09-29T16:28:01;4.17;;;1.73;;
7525;SDS011;3804;50.860;6.208;2022-09-29T16:30:30;2.97;;;1.97;;
7525;SDS011;3804;50.860;6.208;2022-09-29T16:33:02;3.97;;;2.00;;
7525;SDS011;3804;50.860;6.208;2022-09-29T16:35:36;3.17;;;1.80;;
7525;SDS011;3804;50.860;6.208;2022-09-29T16:38:09;3.70;;;2.30;;
7525;SDS011;3804;50.860;6.208;2022-09-29T16:40:41;3.57;;;1.90;;
7525;SDS011;3804;50.860;6.208;2022-09-29T16:45:52;6.53;;;2.20;;
7525;SDS011;3804;50.860;6.208;2022-09-29T16:48:21;4.73;;;2.17;;
7525;SDS011;3804;50.860;6.208;2022-09-29T16:50:48;3.97;;;2.10;;
7525;SDS011;3804;50.860;6.208;2022-09-29T16:53:49;4.67;;;2.33;;
7525;SDS011;3804;50.860;6.208;2022-09-29T16:56:09;3.93;;;2.50;;
7525;SDS011;3804;50.860;6.208;2022-09-29T16:58:36;3.50;;;1.90;;
7525;SDS011;3804;50.860;6.208;2022-09-29T17:01:04;3.07;;;2.30;;
7525;SDS011;3804;50.860;6.208;2022-09-29T17:03:31;4.10;;;2.10;;
7525;SDS011;3804;50.860;6.208;2022-09-29T17:05:58;3.63;;;2.77;;
7525;SDS011;3804;50.860;6.208;2022-09-29T17:08:26;4.73;;;2.43;;
7525;SDS011;3804;50.860;6.208;2022-09-29T17:10:55;4.83;;;2.33;;
7525;SDS011;3804;50.860;6.208;2022-09-29T17:13:22;2.57;;;1.93;;
7525;SDS011;3804;50.860;6.208;2022-09-29T17:15:50;3.73;;;2.57;;
7525;SDS011;3804;50.860;6.208;2022-09-29T17:18:17;6.63;;;3.00;;
7525;SDS011;3804;50.860;6.208;2022-09-29T17:20:44;5.93;;;3.80;;
7525;SDS011;3804;50.860;6.208;2022-09-29T17:23:11;5.63;;;4.23;;
7525;SDS011;3804;50.860;6.208;2022-09-29T17:25:39;8.23;;;5.27;;
7525;SDS011;3804;50.860;6.208;2022-09-29T17:28:16;9.70;;;6.10;;
7525;SDS011;3804;50.860;6.208;2022-09-29T17:30:44;9.17;;;5.67;;
7525;SDS011;3804;50.860;6.208;2022-09-29T17:33:12;7.07;;;4.80;;
7525;SDS011;3804;50.860;6.208;2022-09-29T17:35:47;8.00;;;5.13;;
7525;SDS011;3804;50.860;6.208;2022-09-29T17:38:20;7.57;;;5.80;;
7525;SDS011;3804;50.860;6.208;2022-09-29T17:40:49;8.17;;;4.87;;
7525;SDS011;3804;50.860;6.208;2022-09-29T17:43:16;7.43;;;4.53;;
7525;SDS011;3804;50.860;6.208;2022-09-29T17:45:44;6.60;;;4.20;;
7525;SDS011;3804;50.860;6.208;2022-09-29T17:48:11;5.67;;;4.00;;
7525;SDS011;3804;50.860;6.208;2022-09-29T17:50:39;6.07;;;4.53;;
7525;SDS011;3804;50.860;6.208;2022-09-29T17:53:07;5.10;;;4.10;;
7525;SDS011;3804;50.860;6.208;2022-09-29T17:55:36;5.97;;;3.80;;
7525;SDS011;3804;50.860;6.208;2022-09-29T17:58:03;4.30;;;3.33;;
7525;SDS011;3804;50.860;6.208;2022-09-29T18:00:32;3.67;;;3.30;;
7525;SDS011;3804;50.860;6.208;2022-09-29T18:02:58;7.13;;;4.43;;
7525;SDS011;3804;50.860;6.208;2022-09-29T18:05:26;9.87;;;4.93;;
7525;SDS011;3804;50.860;6.208;2022-09-29T18:07:54;7.60;;;3.57;;
7525;SDS011;3804;50.860;6.208;2022-09-29T18:13:14;5.83;;;3.53;;
7525;SDS011;3804;50.860;6.208;2022-09-29T18:15:41;3.90;;;3.23;;
7525;SDS011;3804;50.860;6.208;2022-09-29T18:18:09;5.13;;;3.57;;
7525;SDS011;3804;50.860;6.208;2022-09-29T18:20:37;6.27;;;3.87;;
7525;SDS011;3804;50.860;6.208;2022-09-29T18:23:08;6.53;;;3.87;;
7525;SDS011;3804;50.860;6.208;2022-09-29T18:25:34;7.03;;;4.10;;